Time,TemperatureF,DewpointF,PressureIn,WindDirection,WindDirectionDegrees,WindSpeedMPH,WindSpeedGustMPH,Humidity,HourlyPrecipIn,Conditions,Clouds,dailyrainin,SoftwareType,DateUTC
2013-05-23 00:01:00,63.0,61.2,29.87,SSW,204,0.0,0.0,94,0.00,RA,,0.00,WeatherDisplay:10.37,2013-05-23 04:01:00,
2013-05-23 00:06:00,63.0,61.2,29.87,SSW,204,0.0,0.0,94,0.00,RA,,0.00,WeatherDisplay:10.37,2013-05-23 04:06:00,
2013-05-23 00:11:00,63.0,61.2,29.87,SSW,204,0.0,0.0,94,0.00,CLR,,0.00,WeatherDisplay:10.37,2013-05-23 04:11:00,
2013-05-23 00:16:00,63.1,61.3,29.87,SSW,204,0.0,0.0,94,0.00,CLR,,0.00,WeatherDisplay:10.37,2013-05-23 04:16:00,
2013-05-23 00:21:00,63.1,61.3,29.86,SSW,204,0.0,0.0,94,0.00,CLR,,0.00,WeatherDisplay:10.37,2013-05-23 04:21:00,
2013-05-23 00:26:00,63.1,61.3,29.86,SSW,204,0.0,0.0,94,0.00,CLR,,0.00,WeatherDisplay:10.37,2013-05-23 04:26:00,
2013-05-23 00:31:00,63.1,61.3,29.86,SSW,204,0.0,0.0,94,0.00,CLR,,0.00,WeatherDisplay:10.37,2013-05-23 04:31:00,
2013-05-23 00:36:00,63.1,61.3,29.86,SSW,204,0.0,0.0,94,0.00,CLR,,0.00,WeatherDisplay:10.37,2013-05-23 04:36:00,
2013-05-23 00:41:00,63.1,61.3,29.86,SSW,204,0.0,0.0,94,0.00,CLR,,0.00,WeatherDisplay:10.37,2013-05-23 04:41:00,
2013-05-23 00:46:00,63.0,61.5,29.86,SSW,204,0.0,0.0,95,0.00,CLR,,0.00,WeatherDisplay:10.37,2013-05-23 04:46:00,
2013-05-23 00:51:00,62.9,61.1,29.86,SSW,204,0.0,0.0,94,0.00,CLR,,0.00,WeatherDisplay:10.37,2013-05-23 04:51:00,
2013-05-23 00:56:00,62.9,61.4,29.86,SSW,204,0.0,0.0,95,0.00,CLR,,0.00,WeatherDisplay:10.37,2013-05-23 04:56:00,
2013-05-23 01:01:00,62.8,61.3,29.86,SSW,204,0.0,0.0,95,0.00,CLR,,0.00,WeatherDisplay:10.37,2013-05-23 05:01:00,
2013-05-23 01:06:00,62.7,61.2,29.86,SSW,204,0.0,0.0,95,0.00,CLR,,0.00,WeatherDisplay:10.37,2013-05-23 05:06:00,
2013-05-23 01:11:00,62.6,61.1,29.86,SSW,204,0.0,0.0,95,0.00,CLR,,0.00,WeatherDisplay:10.37,2013-05-23 05:11:00,
2013-05-23 01:16:00,62.6,61.1,29.86,SSW,204,0.0,0.0,95,0.00,CLR,,0.00,WeatherDisplay:10.37,2013-05-23 05:16:00,
2013-05-23 01:21:00,62.5,61.0,29.86,SSW,204,1.2,1.2,95,0.00,CLR,,0.00,WeatherDisplay:10.37,2013-05-23 05:21:00,
2013-05-23 01:26:00,62.4,60.9,29.86,SSW,204,0.0,0.0,95,0.00,CLR,,0.00,WeatherDisplay:10.37,2013-05-23 05:26:00,
2013-05-23 01:31:00,62.4,60.9,29.86,SSW,204,0.0,0.0,95,0.00,CLR,,0.00,WeatherDisplay:10.37,2013-05-23 05:31:00,
2013-05-23 01:36:00,62.4,60.9,29.85,SSW,204,0.0,0.0,95,0.00,CLR,,0.00,WeatherDisplay:10.37,2013-05-23 05:36:00,
2013-05-23 01:41:00,62.3,61.1,29.85,SSW,204,0.0,0.0,96,0.00,CLR,,0.00,WeatherDisplay:10.37,2013-05-23 05:41:00,
2013-05-23 01:46:00,62.2,60.8,29.85,SSW,204,0.0,0.0,95,0.00,CLR,,0.00,WeatherDisplay:10.37,2013-05-23 05:46:00,
2013-05-23 01:51:00,62.2,61.0,29.84,SSW,204,0.0,0.0,96,0.00,,,0.00,WeatherDisplay:10.37,2013-05-23 05:51:00,
2013-05-23 01:56:00,62.2,61.0,29.85,SSW,204,0.0,0.0,96,0.00,,,0.00,WeatherDisplay:10.37,2013-05-23 05:56:00,
2013-05-23 02:01:00,62.1,60.9,29.84,SSW,204,0.0,0.0,96,0.00,,,0.00,WeatherDisplay:10.37,2013-05-23 06:01:00,
2013-05-23 02:06:00,62.1,60.9,29.84,SSW,204,0.0,0.0,96,0.00,,,0.00,WeatherDisplay:10.37,2013-05-23 06:06:00,
2013-05-23 02:11:00,62.1,60.9,29.84,SSW,204,0.0,0.0,96,0.00,,,0.00,WeatherDisplay:10.37,2013-05-23 06:11:00,
2013-05-23 02:16:00,62.0,60.8,29.84,SSW,204,0.0,0.0,96,0.00,,,0.00,WeatherDisplay:10.37,2013-05-23 06:16:00,
2013-05-23 02:21:00,62.0,60.8,29.84,SSW,204,0.0,0.0,96,0.00,,,0.00,WeatherDisplay:10.37,2013-05-23 06:21:00,
2013-05-23 02:26:00,61.9,60.7,29.84,SSW,204,0.0,0.0,96,0.00,,,0.00,WeatherDisplay:10.37,2013-05-23 06:26:00,
2013-05-23 02:31:00,61.8,60.6,29.84,SSW,204,0.0,0.0,96,0.00,,,0.00,WeatherDisplay:10.37,2013-05-23 06:31:00,
2013-05-23 02:36:00,61.8,60.6,29.84,SSW,204,0.0,0.0,96,0.00,,,0.00,WeatherDisplay:10.37,2013-05-23 06:36:00,
2013-05-23 02:41:00,61.7,60.5,29.84,SSW,204,0.0,0.0,96,0.00,,,0.00,WeatherDisplay:10.37,2013-05-23 06:41:00,
2013-05-23 02:46:00,61.6,61.6,29.84,SSW,204,0.0,0.0,100,0.00,,,0.00,WeatherDisplay:10.37,2013-05-23 06:46:00,
2013-05-23 02:51:00,61.6,61.6,29.84,SSW,204,0.0,0.0,100,0.00,,,0.00,WeatherDisplay:10.37,2013-05-23 06:51:00,
2013-05-23 02:56:00,61.6,61.6,29.85,SSW,204,0.0,0.0,100,0.01,RA,,0.01,WeatherDisplay:10.37,2013-05-23 06:56:00,
2013-05-23 06:57:00,62.6,62.6,29.87,SSW,199,4.6,4.6,100,0.00,,,0.02,WeatherDisplay:10.37,2013-05-23 10:57:00,
2013-05-23 07:02:00,62.6,62.6,29.87,SW,225,0.0,0.0,100,0.00,,,0.02,WeatherDisplay:10.37,2013-05-23 11:02:00,
2013-05-23 07:07:00,62.6,62.6,29.88,SW,229,1.2,1.2,100,0.00,,,0.02,WeatherDisplay:10.37,2013-05-23 11:07:00,
2013-05-23 07:12:00,62.6,62.6,29.87,SW,229,2.3,2.3,100,0.00,,,0.02,WeatherDisplay:10.37,2013-05-23 11:12:00,
2013-05-23 07:17:00,62.6,62.6,29.87,WSW,245,5.8,5.8,100,0.00,,,0.02,WeatherDisplay:10.37,2013-05-23 11:17:00,
2013-05-23 07:22:00,62.6,62.6,29.88,SW,234,0.0,0.0,100,0.00,,,0.02,WeatherDisplay:10.37,2013-05-23 11:22:00,
2013-05-23 07:27:00,62.6,62.6,29.88,SW,231,2.7,2.7,100,0.00,,,0.02,WeatherDisplay:10.37,2013-05-23 11:27:00,
2013-05-23 07:32:00,62.6,62.6,29.88,SW,218,3.5,0.0,100,0.00,,,0.02,WeatherDisplay:10.37,2013-05-23 11:32:00,
2013-05-23 07:37:00,62.6,62.6,29.88,SW,230,0.0,0.1,100,0.00,,,0.02,WeatherDisplay:10.37,2013-05-23 11:37:00,
2013-05-23 07:42:00,62.7,62.7,29.88,SW,230,1.3,0.0,100,0.00,,,0.02,WeatherDisplay:10.37,2013-05-23 11:42:00,
2013-05-23 07:47:00,62.8,62.8,29.88,SW,227,1.2,1.2,100,0.00,,,0.02,WeatherDisplay:10.37,2013-05-23 11:47:00,
2013-05-23 07:52:00,62.8,62.8,29.88,SW,223,3.5,3.5,100,0.00,,,0.02,WeatherDisplay:10.37,2013-05-23 11:52:00,
2013-05-23 07:57:00,62.8,62.8,29.88,SSW,200,5.8,5.8,100,0.00,,,0.02,WeatherDisplay:10.37,2013-05-23 11:57:00,
2013-05-23 08:02:00,62.8,62.8,29.88,South,187,5.4,5.4,100,0.00,,,0.02,WeatherDisplay:10.37,2013-05-23 12:02:00,
2013-05-23 08:07:00,62.8,62.8,29.88,WSW,246,1.3,1.3,100,0.00,,,0.02,WeatherDisplay:10.37,2013-05-23 12:07:00,
2013-05-23 08:12:00,62.8,62.8,29.88,SW,214,2.3,2.3,100,0.00,,,0.02,WeatherDisplay:10.37,2013-05-23 12:12:00,
2013-05-23 08:17:00,62.8,62.8,29.88,SW,215,0.0,0.0,100,0.00,,,0.02,WeatherDisplay:10.37,2013-05-23 12:17:00,
2013-05-23 08:22:00,62.8,62.8,29.88,SW,215,0.0,0.0,100,0.00,,,0.02,WeatherDisplay:10.37,2013-05-23 12:22:00,
2013-05-23 08:27:00,62.9,62.9,29.88,SW,214,0.0,0.0,100,0.00,,,0.02,WeatherDisplay:10.37,2013-05-23 12:27:00,
2013-05-23 08:32:00,62.9,62.9,29.88,WSW,253,0.0,0.0,100,0.00,,,0.02,WeatherDisplay:10.37,2013-05-23 12:32:00,
2013-05-23 08:37:00,62.8,62.8,29.88,SW,221,0.0,0.6,100,0.00,,,0.02,WeatherDisplay:10.37,2013-05-23 12:37:00,
2013-05-23 08:42:00,62.7,62.7,29.88,SW,227,0.0,0.0,100,0.00,,,0.02,WeatherDisplay:10.37,2013-05-23 12:42:00,
2013-05-23 08:47:00,62.6,62.6,29.89,SW,227,0.0,0.0,100,0.00,,,0.02,WeatherDisplay:10.37,2013-05-23 12:47:00,
2013-05-23 08:52:00,62.6,62.6,29.88,SW,227,0.0,0.0,100,0.00,,,0.02,WeatherDisplay:10.37,2013-05-23 12:52:00,
2013-05-23 08:57:00,62.6,62.6,29.89,SW,227,0.0,0.0,100,0.00,,,0.02,WeatherDisplay:10.37,2013-05-23 12:57:00,
2013-05-23 09:02:00,62.7,62.7,29.89,South,189,0.0,0.0,100,0.00,,,0.02,WeatherDisplay:10.37,2013-05-23 13:02:00,
2013-05-23 09:07:00,62.7,62.7,29.89,South,189,0.0,0.0,100,0.00,,,0.02,WeatherDisplay:10.37,2013-05-23 13:07:00,
2013-05-23 09:12:00,62.8,62.8,29.89,SW,218,1.3,1.3,100,0.00,,,0.02,WeatherDisplay:10.37,2013-05-23 13:12:00,
2013-05-23 09:17:00,62.8,62.8,29.89,SW,218,2.7,2.7,100,0.00,,,0.02,WeatherDisplay:10.37,2013-05-23 13:17:00,
2013-05-23 09:22:00,62.8,62.8,29.89,WSW,240,0.0,0.0,100,0.00,,,0.02,WeatherDisplay:10.37,2013-05-23 13:22:00,
2013-05-23 09:27:00,62.9,62.9,29.89,WSW,256,0.0,0.0,100,0.00,,,0.02,WeatherDisplay:10.37,2013-05-23 13:27:00,
2013-05-23 09:32:00,62.9,62.9,29.89,SW,233,3.5,3.5,100,0.00,,,0.02,WeatherDisplay:10.37,2013-05-23 13:32:00,
2013-05-23 09:38:00,62.9,61.7,29.89,NW,314,0.0,0.0,96,0.00,,,0.02,WeatherDisplay:10.37,2013-05-23 13:38:00,
2013-05-23 09:43:00,63.0,61.8,29.89,SW,218,1.2,0.0,96,0.00,,,0.02,WeatherDisplay:10.37,2013-05-23 13:43:00,
2013-05-23 09:48:00,63.0,61.8,29.89,South,185,3.3,3.3,96,0.00,,,0.02,WeatherDisplay:10.37,2013-05-23 13:48:00,
2013-05-23 09:53:00,63.0,61.2,29.89,NNE,12,2.2,0.0,94,0.00,CLR,,0.02,WeatherDisplay:10.37,2013-05-23 13:53:00,
2013-05-23 09:58:00,63.0,61.2,29.89,WSW,250,1.2,1.2,94,0.00,CLR,,0.02,WeatherDisplay:10.37,2013-05-23 13:58:00,
2013-05-23 10:03:00,63.1,61.0,29.89,South,188,4.4,4.4,93,0.00,CLR,,0.02,WeatherDisplay:10.37,2013-05-23 14:03:00,
2013-05-23 10:08:00,63.1,60.4,29.88,South,179,4.6,4.6,91,0.00,CLR,,0.02,WeatherDisplay:10.37,2013-05-23 14:08:00,
2013-05-23 10:13:00,63.2,60.5,29.89,South,190,6.9,6.9,91,0.00,CLR,,0.02,WeatherDisplay:10.37,2013-05-23 14:13:00,
2013-05-23 10:18:00,63.4,61.3,29.89,SSW,211,0.0,1.1,93,0.00,CLR,,0.02,WeatherDisplay:10.37,2013-05-23 14:18:00,
2013-05-23 10:23:00,63.4,60.1,29.88,SW,226,2.3,2.3,89,0.00,CLR,,0.02,WeatherDisplay:10.37,2013-05-23 14:23:00,
2013-05-23 10:28:00,63.5,59.9,29.89,WSW,252,1.2,0.0,88,0.00,CLR,,0.02,WeatherDisplay:10.37,2013-05-23 14:28:00,
2013-05-23 10:33:00,63.7,60.1,29.89,WSW,256,3.3,3.3,88,0.00,CLR,,0.02,WeatherDisplay:10.37,2013-05-23 14:33:00,
2013-05-23 10:38:00,63.9,60.3,29.89,WSW,256,6.9,6.9,88,0.00,CLR,,0.02,WeatherDisplay:10.37,2013-05-23 14:38:00,
2013-05-23 10:43:00,64.2,60.6,29.89,SW,233,4.6,4.6,88,0.00,CLR,,0.02,WeatherDisplay:10.37,2013-05-23 14:43:00,
2013-05-23 10:48:00,64.4,60.1,29.89,SSW,197,5.8,5.8,86,0.00,CLR,,0.02,WeatherDisplay:10.37,2013-05-23 14:48:00,
2013-05-23 10:53:00,64.8,59.5,29.89,SSW,192,8.1,8.1,83,0.00,CLR,,0.02,WeatherDisplay:10.37,2013-05-23 14:53:00,
2013-05-23 10:58:00,64.9,58.9,29.89,South,175,6.9,6.9,81,0.00,CLR,,0.02,WeatherDisplay:10.37,2013-05-23 14:58:00,
2013-05-23 11:03:00,65.2,58.2,29.89,South,181,1.2,1.2,78,0.00,CLR,,0.02,WeatherDisplay:10.37,2013-05-23 15:03:00,
2013-05-23 11:08:00,65.5,60.2,29.89,SSW,193,5.4,5.4,83,0.00,CLR,,0.02,WeatherDisplay:10.37,2013-05-23 15:08:00,
2013-05-23 11:13:00,65.9,59.9,29.89,WSW,257,1.2,1.2,81,0.00,CLR,,0.02,WeatherDisplay:10.37,2013-05-23 15:13:00,
2013-05-23 11:18:00,66.2,60.5,29.89,WSW,258,0.0,0.1,82,0.00,CLR,,0.02,WeatherDisplay:10.37,2013-05-23 15:18:00,
2013-05-23 11:23:00,66.4,59.7,29.88,NE,54,5.8,5.8,79,0.00,CLR,,0.02,WeatherDisplay:10.37,2013-05-23 15:23:00,
2013-05-23 11:28:00,66.6,59.2,29.89,ENE,69,3.5,3.5,77,0.00,CLR,,0.02,WeatherDisplay:10.37,2013-05-23 15:28:00,
2013-05-23 11:33:00,66.9,58.7,29.89,WNW,294,8.1,8.1,75,0.00,CLR,,0.02,WeatherDisplay:10.37,2013-05-23 15:33:00,
2013-05-23 11:38:00,67.3,59.5,29.89,NNW,339,3.5,3.5,76,0.00,CLR,,0.02,WeatherDisplay:10.37,2013-05-23 15:38:00,
2013-05-23 11:43:00,67.6,61.6,29.89,West,276,0.0,0.0,81,0.00,CLR,,0.02,WeatherDisplay:10.37,2013-05-23 15:43:00,
2013-05-23 11:48:00,68.0,60.9,29.89,SW,234,5.8,0.0,78,0.00,CLR,,0.02,WeatherDisplay:10.37,2013-05-23 15:48:00,
2013-05-23 11:53:00,68.4,61.6,29.89,NNW,346,0.0,0.0,79,0.00,CLR,,0.02,WeatherDisplay:10.37,2013-05-23 15:53:00,
2013-05-23 11:58:00,68.6,60.0,29.89,North,356,0.0,0.0,74,0.00,CLR,,0.02,WeatherDisplay:10.37,2013-05-23 15:58:00,
2013-05-23 12:03:00,68.9,62.1,29.89,SE,146,0.0,0.0,79,0.00,CLR,,0.02,WeatherDisplay:10.37,2013-05-23 16:03:00,
2013-05-23 12:08:00,69.3,62.5,29.89,SW,228,1.2,1.2,79,0.00,CLR,,0.02,WeatherDisplay:10.37,2013-05-23 16:08:00,
2013-05-23 12:13:00,69.8,62.3,29.89,SSW,210,1.2,0.0,77,0.00,CLR,,0.02,WeatherDisplay:10.37,2013-05-23 16:13:00,
2013-05-23 12:18:00,70.3,62.7,29.89,WSW,252,0.0,0.0,77,0.00,CLR,,0.02,WeatherDisplay:10.37,2013-05-23 16:18:00,
2013-05-23 12:23:00,70.8,62.9,29.89,West,280,0.0,0.0,76,0.00,CLR,,0.02,WeatherDisplay:10.37,2013-05-23 16:23:00,
2013-05-23 12:28:00,71.1,62.0,29.88,SE,144,1.2,0.0,73,0.00,CLR,,0.02,WeatherDisplay:10.37,2013-05-23 16:28:00,
2013-05-23 12:33:00,71.3,62.2,29.88,South,181,0.0,0.0,73,0.00,CLR,,0.02,WeatherDisplay:10.37,2013-05-23 16:33:00,
2013-05-23 12:38:00,71.5,62.8,29.88,SW,231,1.2,1.2,74,0.00,CLR,,0.02,WeatherDisplay:10.37,2013-05-23 16:38:00,
2013-05-23 12:43:00,71.8,63.1,29.88,SW,227,0.0,0.0,74,0.00,CLR,,0.02,WeatherDisplay:10.37,2013-05-23 16:43:00,
2013-05-23 12:48:00,72.2,62.3,29.88,SW,231,2.3,2.3,71,0.00,CLR,,0.02,WeatherDisplay:10.37,2013-05-23 16:48:00,
2013-05-23 12:53:00,72.4,61.2,29.88,SSE,158,3.5,3.5,68,0.00,CLR,,0.02,WeatherDisplay:10.37,2013-05-23 16:53:00,
2013-05-23 12:58:00,72.5,61.7,29.87,SSW,200,1.2,0.0,69,0.00,CLR,,0.02,WeatherDisplay:10.37,2013-05-23 16:58:00,
2013-05-23 13:04:00,72.7,61.5,29.87,SW,220,5.3,5.3,68,0.00,CLR,,0.02,WeatherDisplay:10.37,2013-05-23 17:04:00,
2013-05-23 13:09:00,73.2,61.6,29.87,SSW,208,1.2,1.2,67,0.00,CLR,,0.02,WeatherDisplay:10.37,2013-05-23 17:09:00,
2013-05-23 13:14:00,73.9,62.2,29.87,South,191,4.6,4.6,67,0.00,CLR,,0.02,WeatherDisplay:10.37,2013-05-23 17:14:00,
2013-05-23 13:19:00,74.5,59.7,29.87,South,169,2.3,2.3,60,0.00,CLR,,0.02,WeatherDisplay:10.37,2013-05-23 17:19:00,
2013-05-23 13:24:00,75.2,61.7,29.87,SW,219,6.9,6.9,63,0.00,CLR,,0.02,WeatherDisplay:10.37,2013-05-23 17:24:00,
2013-05-23 13:29:00,75.9,60.5,29.87,SW,231,5.8,5.8,59,0.00,CLR,,0.02,WeatherDisplay:10.37,2013-05-23 17:29:00,
2013-05-23 13:34:00,76.0,61.1,29.87,West,260,0.0,0.0,60,0.00,CLR,,0.02,WeatherDisplay:10.37,2013-05-23 17:34:00,
2013-05-23 13:39:00,76.1,61.2,29.87,South,191,5.8,5.8,60,0.00,CLR,,0.02,WeatherDisplay:10.37,2013-05-23 17:39:00,
2013-05-23 13:44:00,76.2,61.3,29.86,SW,225,2.7,2.7,60,0.00,CLR,,0.02,WeatherDisplay:10.37,2013-05-23 17:44:00,
2013-05-23 13:49:00,76.1,60.7,29.87,SSW,208,8.1,8.1,59,0.00,CLR,,0.02,WeatherDisplay:10.37,2013-05-23 17:49:00,
2013-05-23 13:54:00,75.7,61.8,29.86,SW,221,3.5,3.5,62,0.00,CLR,,0.02,WeatherDisplay:10.37,2013-05-23 17:54:00,
2013-05-23 13:59:00,75.4,60.5,29.87,SW,233,1.2,1.2,60,0.00,CLR,,0.02,WeatherDisplay:10.37,2013-05-23 17:59:00,
2013-05-23 14:05:00,75.2,60.8,29.86,SSE,167,4.6,4.6,61,0.00,CLR,,0.02,WeatherDisplay:10.37,2013-05-23 18:05:00,
2013-05-23 14:10:00,75.2,61.3,29.86,SSW,204,5.8,5.8,62,0.00,CLR,,0.02,WeatherDisplay:10.37,2013-05-23 18:10:00,
2013-05-23 14:15:00,75.0,61.1,29.86,WSW,248,5.8,5.8,62,0.00,CLR,,0.02,WeatherDisplay:10.37,2013-05-23 18:15:00,
2013-05-23 14:20:00,74.7,59.9,29.86,WNW,283,5.8,5.8,60,0.00,CLR,,0.02,WeatherDisplay:10.37,2013-05-23 18:20:00,
2013-05-23 14:25:00,74.6,60.3,29.86,SSW,198,4.6,4.6,61,0.00,CLR,,0.02,WeatherDisplay:10.37,2013-05-23 18:25:00,
2013-05-23 14:30:00,74.5,59.7,29.86,SW,233,1.2,1.2,60,0.00,CLR,,0.02,WeatherDisplay:10.37,2013-05-23 18:30:00,
2013-05-23 14:35:00,74.4,60.1,29.86,WNW,289,3.5,3.5,61,0.00,CLR,,0.02,WeatherDisplay:10.37,2013-05-23 18:35:00,
2013-05-23 14:40:00,74.3,59.5,29.86,WSW,258,9.2,9.2,60,0.00,CLR,,0.02,WeatherDisplay:10.37,2013-05-23 18:40:00,
2013-05-23 14:45:00,74.1,58.9,29.86,SSW,208,9.8,9.8,59,0.00,CLR,,0.02,WeatherDisplay:10.37,2013-05-23 18:45:00,
2013-05-23 14:50:00,73.8,59.0,29.86,SW,233,13.8,13.8,60,0.00,CLR,,0.02,WeatherDisplay:10.37,2013-05-23 18:50:00,
2013-05-23 14:55:00,73.6,59.3,29.87,SW,227,21.9,21.9,61,0.00,CLR,,0.02,WeatherDisplay:10.37,2013-05-23 18:55:00,
2013-05-23 15:00:00,73.4,59.6,29.87,SW,229,19.6,19.6,62,0.00,CLR,,0.02,WeatherDisplay:10.37,2013-05-23 19:00:00,
2013-05-23 15:05:00,73.1,59.3,29.87,WSW,244,21.9,21.9,62,0.00,CLR,,0.02,WeatherDisplay:10.37,2013-05-23 19:05:00,
2013-05-23 15:10:00,73.0,58.8,29.87,SW,229,11.5,11.5,61,0.00,CLR,,0.02,WeatherDisplay:10.37,2013-05-23 19:10:00,
2013-05-23 15:15:00,72.9,59.6,29.86,SW,227,19.6,19.6,63,0.00,CLR,,0.02,WeatherDisplay:10.37,2013-05-23 19:15:00,
2013-05-23 15:20:00,73.0,60.1,29.87,West,280,10.4,10.4,64,0.00,CLR,,0.02,WeatherDisplay:10.37,2013-05-23 19:20:00,
2013-05-23 15:26:00,73.3,59.5,29.86,SSW,202,14.2,14.2,62,0.00,CLR,,0.02,WeatherDisplay:10.37,2013-05-23 19:26:00,
2013-05-23 15:31:00,73.4,59.6,29.86,WSW,239,21.9,21.9,62,0.00,CLR,,0.02,WeatherDisplay:10.37,2013-05-23 19:31:00,
2013-05-23 15:36:00,73.2,58.9,29.86,SW,224,16.1,16.1,61,0.00,CLR,,0.02,WeatherDisplay:10.37,2013-05-23 19:36:00,
2013-05-23 15:41:00,73.0,58.8,29.85,West,263,16.1,16.1,61,0.00,CLR,,0.02,WeatherDisplay:10.37,2013-05-23 19:41:00,
2013-05-23 15:46:00,72.9,58.7,29.85,SW,236,16.1,16.1,61,0.00,CLR,,0.02,WeatherDisplay:10.37,2013-05-23 19:46:00,
2013-05-23 15:51:00,72.9,59.1,29.86,WSW,251,17.3,17.3,62,0.00,CLR,,0.02,WeatherDisplay:10.37,2013-05-23 19:51:00,
2013-05-23 15:56:00,72.7,58.9,29.85,SSE,166,14.2,14.2,62,0.00,CLR,,0.02,WeatherDisplay:10.37,2013-05-23 19:56:00,
2013-05-23 16:02:00,72.6,58.8,29.85,South,189,11.5,11.5,62,0.00,CLR,,0.02,WeatherDisplay:10.37,2013-05-23 20:02:00,
2013-05-23 16:07:00,72.5,58.7,29.85,SSW,207,5.8,5.8,62,0.00,CLR,,0.02,WeatherDisplay:10.37,2013-05-23 20:07:00,
2013-05-23 16:12:00,72.5,59.2,29.86,WSW,240,18.4,18.7,63,0.00,CLR,,0.02,WeatherDisplay:10.37,2013-05-23 20:12:00,
2013-05-23 16:17:00,72.7,59.4,29.86,SW,225,9.2,9.2,63,0.00,CLR,,0.02,WeatherDisplay:10.37,2013-05-23 20:17:00,
2013-05-23 16:22:00,72.6,58.8,29.86,West,260,19.6,19.6,62,0.00,CLR,,0.02,WeatherDisplay:10.37,2013-05-23 20:22:00,
2013-05-23 16:27:00,72.5,59.2,29.86,SW,232,10.4,10.4,63,0.00,CLR,,0.02,WeatherDisplay:10.37,2013-05-23 20:27:00,
2013-05-23 16:32:00,72.2,59.3,29.86,SW,218,1.3,0.0,64,0.00,CLR,,0.02,WeatherDisplay:10.37,2013-05-23 20:32:00,
2013-05-23 16:37:00,72.0,60.4,29.86,SW,225,13.8,13.8,67,0.00,CLR,,0.02,WeatherDisplay:10.37,2013-05-23 20:37:00,
2013-05-23 16:42:00,71.3,63.3,29.86,WNW,286,0.0,0.0,76,0.11,RA,,0.14,WeatherDisplay:10.37,2013-05-23 20:42:00,
2013-05-23 16:47:00,70.1,62.9,29.85,West,275,0.0,0.0,78,0.12,RA,,0.14,WeatherDisplay:10.37,2013-05-23 20:47:00,
2013-05-23 16:52:00,68.7,62.3,29.85,SW,229,2.3,2.3,80,0.12,RA,,0.14,WeatherDisplay:10.37,2013-05-23 20:52:00,
2013-05-23 16:57:00,67.7,61.7,29.85,SSW,201,4.6,4.6,81,0.12,CLR,,0.14,WeatherDisplay:10.37,2013-05-23 20:57:00,
2013-05-23 17:02:00,66.9,61.2,29.86,South,179,6.9,6.9,82,0.12,CLR,,0.14,WeatherDisplay:10.37,2013-05-23 21:02:00,
2013-05-23 17:07:00,66.4,61.4,29.86,SSW,199,5.8,5.8,84,0.12,CLR,,0.14,WeatherDisplay:10.37,2013-05-23 21:07:00,
2013-05-23 17:12:00,65.9,59.9,29.85,SSW,199,19.6,19.6,81,0.12,CLR,,0.14,WeatherDisplay:10.37,2013-05-23 21:12:00,
2013-05-23 17:17:00,65.6,60.0,29.86,SW,220,6.9,6.9,82,0.12,CLR,,0.14,WeatherDisplay:10.37,2013-05-23 21:17:00,
2013-05-23 17:22:00,65.5,58.8,29.85,SW,230,10.4,10.4,79,0.12,CLR,,0.14,WeatherDisplay:10.37,2013-05-23 21:22:00,
2013-05-23 17:27:00,65.5,58.8,29.86,SSW,213,19.6,19.6,79,0.12,CLR,,0.14,WeatherDisplay:10.37,2013-05-23 21:27:00,
2013-05-23 17:32:00,65.6,59.3,29.86,SSW,198,19.6,19.6,80,0.12,CLR,,0.14,WeatherDisplay:10.37,2013-05-23 21:32:00,
2013-05-23 17:37:00,66.0,59.7,29.85,SSW,201,28.8,28.8,80,0.11,CLR,,0.14,WeatherDisplay:10.37,2013-05-23 21:37:00,
2013-05-23 17:42:00,66.4,60.4,29.85,WSW,241,17.3,17.3,81,0.01,CLR,,0.14,WeatherDisplay:10.37,2013-05-23 21:42:00,
2013-05-23 17:47:00,66.6,59.9,29.86,SW,230,10.4,10.4,79,0.00,CLR,,0.14,WeatherDisplay:10.37,2013-05-23 21:47:00,
2013-05-23 17:52:00,66.8,59.7,29.86,SSW,213,10.4,10.4,78,0.00,CLR,,0.14,WeatherDisplay:10.37,2013-05-23 21:52:00,
2013-05-23 17:57:00,66.9,59.5,29.85,SE,135,15.0,15.0,77,0.00,CLR,,0.14,WeatherDisplay:10.37,2013-05-23 21:57:00,
2013-05-23 18:02:00,67.0,59.9,29.86,WSW,237,13.8,13.8,78,0.00,CLR,,0.14,WeatherDisplay:10.37,2013-05-23 22:02:00,
2013-05-23 18:07:00,67.0,59.5,29.85,SW,233,13.8,13.8,77,0.00,CLR,,0.14,WeatherDisplay:10.37,2013-05-23 22:07:00,
2013-05-23 18:12:00,67.0,59.9,29.85,SW,225,11.5,11.5,78,0.00,CLR,,0.14,WeatherDisplay:10.37,2013-05-23 22:12:00,
2013-05-23 18:17:00,66.9,59.5,29.85,SW,218,13.8,13.8,77,0.00,CLR,,0.14,WeatherDisplay:10.37,2013-05-23 22:17:00,
2013-05-23 18:22:00,66.8,60.1,29.85,SW,223,10.4,10.4,79,0.00,CLR,,0.14,WeatherDisplay:10.37,2013-05-23 22:22:00,
2013-05-23 18:27:00,66.6,59.9,29.85,SSW,206,6.9,6.9,79,0.00,CLR,,0.14,WeatherDisplay:10.37,2013-05-23 22:27:00,
2013-05-23 18:33:00,66.5,59.8,29.85,SSW,208,4.4,4.4,79,0.00,CLR,,0.14,WeatherDisplay:10.37,2013-05-23 22:33:00,
2013-05-23 18:38:00,66.4,59.7,29.85,SW,229,13.8,13.8,79,0.00,CLR,,0.14,WeatherDisplay:10.37,2013-05-23 22:38:00,
2013-05-23 18:43:00,66.4,60.0,29.85,SW,233,9.3,9.3,80,0.00,CLR,,0.14,WeatherDisplay:10.37,2013-05-23 22:43:00,
2013-05-23 18:48:00,66.3,59.9,29.85,South,181,5.4,5.4,80,0.00,CLR,,0.14,WeatherDisplay:10.37,2013-05-23 22:48:00,
2013-05-23 18:53:00,66.2,59.8,29.85,West,264,10.4,10.4,80,0.00,CLR,,0.14,WeatherDisplay:10.37,2013-05-23 22:53:00,
2013-05-23 18:58:00,66.3,60.3,29.85,WSW,242,3.5,4.3,81,0.00,CLR,,0.14,WeatherDisplay:10.37,2013-05-23 22:58:00,
2013-05-23 19:03:00,66.3,60.3,29.85,SW,229,6.9,6.9,81,0.00,CLR,,0.14,WeatherDisplay:10.37,2013-05-23 23:03:00,
2013-05-23 19:08:00,66.3,59.9,29.85,WSW,246,1.2,1.2,80,0.00,CLR,,0.14,WeatherDisplay:10.37,2013-05-23 23:08:00,
2013-05-23 19:13:00,66.3,59.2,29.86,SSW,193,11.5,11.5,78,0.00,CLR,,0.14,WeatherDisplay:10.37,2013-05-23 23:13:00,
2013-05-23 19:18:00,66.4,60.4,29.86,South,189,8.1,8.1,81,0.00,CLR,,0.14,WeatherDisplay:10.37,2013-05-23 23:18:00,
2013-05-23 19:23:00,66.4,60.7,29.86,SW,215,16.1,16.1,82,0.00,CLR,,0.14,WeatherDisplay:10.37,2013-05-23 23:23:00,
2013-05-23 19:28:00,66.2,59.8,29.86,South,187,7.6,7.6,80,0.00,CLR,,0.14,WeatherDisplay:10.37,2013-05-23 23:28:00,
2013-05-23 19:33:00,65.9,58.5,29.87,NNW,332,9.8,9.8,77,0.00,CLR,,0.14,WeatherDisplay:10.37,2013-05-23 23:33:00,
2013-05-23 19:38:00,65.8,57.7,29.85,NW,325,9.2,9.2,75,0.00,CLR,,0.14,WeatherDisplay:10.37,2013-05-23 23:38:00,
2013-05-23 19:43:00,65.7,56.8,29.86,NNE,26,8.1,8.1,73,0.00,CLR,,0.14,WeatherDisplay:10.37,2013-05-23 23:43:00,
2013-05-23 19:48:00,65.7,57.6,29.86,NNE,29,2.3,2.3,75,0.00,CLR,,0.14,WeatherDisplay:10.37,2013-05-23 23:48:00,
2013-05-23 19:53:00,65.6,57.1,29.86,NW,321,2.3,0.0,74,0.00,CLR,,0.14,WeatherDisplay:10.37,2013-05-23 23:53:00,
2013-05-23 19:58:00,65.5,57.7,29.87,NE,52,5.8,5.8,76,0.00,CLR,,0.14,WeatherDisplay:10.37,2013-05-23 23:58:00,
2013-05-23 20:03:00,65.4,56.9,29.87,SSE,157,11.5,11.5,74,0.00,CLR,,0.14,WeatherDisplay:10.37,2013-05-24 00:03:00,
2013-05-23 20:08:00,65.5,56.2,29.87,East,96,1.2,1.2,72,0.00,CLR,,0.14,WeatherDisplay:10.37,2013-05-24 00:08:00,
2013-05-23 20:13:00,65.5,56.6,29.87,North,2,8.1,8.1,73,0.00,CLR,,0.14,WeatherDisplay:10.37,2013-05-24 00:13:00,
2013-05-23 20:18:00,65.4,57.6,29.87,SSW,210,4.6,4.6,76,0.00,CLR,,0.14,WeatherDisplay:10.37,2013-05-24 00:18:00,
2013-05-23 20:23:00,65.3,56.8,29.88,NW,326,10.4,10.4,74,0.00,CLR,,0.14,WeatherDisplay:10.37,2013-05-24 00:23:00,
2013-05-23 20:28:00,65.1,57.0,29.88,WNW,295,1.2,1.2,75,0.00,CLR,,0.14,WeatherDisplay:10.37,2013-05-24 00:28:00,
2013-05-23 20:33:00,65.0,56.5,29.88,North,351,7.6,7.6,74,0.00,CLR,,0.14,WeatherDisplay:10.37,2013-05-24 00:33:00,
2013-05-23 20:38:00,64.9,56.4,29.88,SSE,154,5.8,5.8,74,0.00,CLR,,0.14,WeatherDisplay:10.37,2013-05-24 00:38:00,
2013-05-23 20:43:00,64.7,56.2,29.88,WSW,241,4.6,4.6,74,0.00,CLR,,0.14,WeatherDisplay:10.37,2013-05-24 00:43:00,
2013-05-23 20:48:00,64.6,56.5,29.88,NE,52,4.6,4.6,75,0.00,CLR,,0.14,WeatherDisplay:10.37,2013-05-24 00:48:00,
2013-05-23 20:53:00,64.4,55.6,29.88,SSE,152,8.1,8.1,73,0.00,CLR,,0.14,WeatherDisplay:10.37,2013-05-24 00:53:00,
2013-05-23 20:58:00,64.3,55.5,29.88,NNE,32,1.2,0.0,73,0.00,CLR,,0.14,WeatherDisplay:10.37,2013-05-24 00:58:00,
2013-05-23 21:03:00,64.2,55.0,29.89,ENE,69,8.1,8.1,72,0.00,CLR,,0.14,WeatherDisplay:10.37,2013-05-24 01:03:00,
2013-05-23 21:08:00,64.0,54.8,29.89,NE,35,6.9,6.9,72,0.00,CLR,,0.14,WeatherDisplay:10.37,2013-05-24 01:08:00,
2013-05-23 21:13:00,64.0,54.8,29.89,NNE,17,3.5,3.5,72,0.00,CLR,,0.14,WeatherDisplay:10.37,2013-05-24 01:13:00,
2013-05-23 21:18:00,63.9,55.1,29.89,NE,49,1.2,0.0,73,0.00,CLR,,0.14,WeatherDisplay:10.37,2013-05-24 01:18:00,
2013-05-23 21:23:00,63.7,55.3,29.89,NW,317,2.3,0.0,74,0.00,CLR,,0.14,WeatherDisplay:10.37,2013-05-24 01:23:00,
2013-05-23 21:28:00,63.5,54.3,29.90,NE,43,6.9,6.9,72,0.00,CLR,,0.14,WeatherDisplay:10.37,2013-05-24 01:28:00,
2013-05-23 21:33:00,63.5,55.1,29.90,SSW,196,9.2,9.2,74,0.00,CLR,,0.14,WeatherDisplay:10.37,2013-05-24 01:33:00,
2013-05-23 21:38:00,63.3,54.5,29.90,East,79,0.0,0.0,73,0.00,CLR,,0.14,WeatherDisplay:10.37,2013-05-24 01:38:00,
2013-05-23 21:43:00,63.1,54.7,29.90,East,94,6.9,6.9,74,0.00,CLR,,0.14,WeatherDisplay:10.37,2013-05-24 01:43:00,
2013-05-23 21:48:00,63.1,55.0,29.90,SSW,206,0.0,0.0,75,0.00,CLR,,0.14,WeatherDisplay:10.37,2013-05-24 01:48:00,
2013-05-23 21:53:00,63.0,54.6,29.90,SSW,197,4.6,4.6,74,0.00,CLR,,0.14,WeatherDisplay:10.37,2013-05-24 01:53:00,
2013-05-23 21:58:00,62.9,54.9,29.90,NW,319,5.8,0.0,75,0.00,CLR,,0.14,WeatherDisplay:10.37,2013-05-24 01:58:00,
2013-05-23 22:03:00,62.7,54.7,29.90,NNE,19,5.8,5.8,75,0.00,CLR,,0.14,WeatherDisplay:10.37,2013-05-24 02:03:00,
2013-05-23 22:08:00,62.7,54.3,29.91,NNE,27,9.8,9.8,74,0.00,CLR,,0.14,WeatherDisplay:10.37,2013-05-24 02:08:00,
2013-05-23 22:13:00,62.6,54.6,29.91,NNE,28,0.0,0.1,75,0.00,CLR,,0.14,WeatherDisplay:10.37,2013-05-24 02:13:00,
2013-05-23 22:18:00,62.6,54.6,29.91,NE,40,1.2,1.2,75,0.00,CLR,,0.14,WeatherDisplay:10.37,2013-05-24 02:18:00,
2013-05-23 22:23:00,62.5,54.5,29.91,WNW,300,5.8,5.8,75,0.00,CLR,,0.14,WeatherDisplay:10.37,2013-05-24 02:23:00,
2013-05-23 22:28:00,62.4,54.4,29.91,NNE,13,8.7,8.7,75,0.00,CLR,,0.14,WeatherDisplay:10.37,2013-05-24 02:28:00,
2013-05-23 22:33:00,62.4,54.4,29.91,East,98,11.5,11.5,75,0.00,CLR,,0.14,WeatherDisplay:10.37,2013-05-24 02:33:00,
2013-05-23 22:38:00,62.3,55.0,29.91,SE,129,5.4,5.4,77,0.00,CLR,,0.14,WeatherDisplay:10.37,2013-05-24 02:38:00,
2013-05-23 22:43:00,62.2,54.9,29.91,ENE,70,5.8,5.8,77,0.00,CLR,,0.14,WeatherDisplay:10.37,2013-05-24 02:43:00,
2013-05-23 22:48:00,62.1,54.4,29.91,East,81,8.1,8.1,76,0.00,CLR,,0.14,WeatherDisplay:10.37,2013-05-24 02:48:00,
2013-05-23 22:53:00,62.0,54.3,29.92,North,1,4.6,4.6,76,0.00,CLR,,0.14,WeatherDisplay:10.37,2013-05-24 02:53:00,
2013-05-23 22:58:00,61.9,54.2,29.92,ENE,59,4.4,4.4,76,0.00,CLR,,0.14,WeatherDisplay:10.37,2013-05-24 02:58:00,
2013-05-23 23:03:00,61.9,55.3,29.92,South,169,4.6,4.6,79,0.00,CLR,,0.14,WeatherDisplay:10.37,2013-05-24 03:03:00,
2013-05-23 23:08:00,61.6,54.0,29.92,NE,55,1.2,3.3,76,0.00,CLR,,0.14,WeatherDisplay:10.37,2013-05-24 03:08:00,
2013-05-23 23:13:00,61.6,54.7,29.92,East,93,6.9,6.9,78,0.00,CLR,,0.14,WeatherDisplay:10.37,2013-05-24 03:13:00,
2013-05-23 23:18:00,61.6,54.7,29.92,ENE,60,5.8,0.0,78,0.00,CLR,,0.14,WeatherDisplay:10.37,2013-05-24 03:18:00,
2013-05-23 23:23:00,61.6,54.7,29.92,SE,132,1.2,0.0,78,0.00,CLR,,0.14,WeatherDisplay:10.37,2013-05-24 03:23:00,
2013-05-23 23:28:00,61.6,54.3,29.92,NNW,330,6.9,6.9,77,0.00,CLR,,0.14,WeatherDisplay:10.37,2013-05-24 03:28:00,
2013-05-23 23:33:00,61.5,54.6,29.92,NE,42,3.5,3.5,78,0.00,CLR,,0.14,WeatherDisplay:10.37,2013-05-24 03:33:00,
2013-05-23 23:38:00,61.4,54.1,29.92,SSW,210,0.0,0.0,77,0.00,CLR,,0.14,WeatherDisplay:10.37,2013-05-24 03:38:00,
2013-05-23 23:43:00,61.3,54.4,29.92,North,356,5.8,5.8,78,0.00,CLR,,0.14,WeatherDisplay:10.37,2013-05-24 03:43:00,
2013-05-23 23:48:00,61.2,54.3,29.92,North,351,2.3,2.3,78,0.00,CLR,,0.14,WeatherDisplay:10.37,2013-05-24 03:48:00,
2013-05-23 23:53:00,61.1,54.2,29.92,North,2,3.5,0.0,78,0.00,CLR,,0.14,WeatherDisplay:10.37,2013-05-24 03:53:00,
2013-05-23 23:58:00,61.0,53.7,29.92,South,173,6.9,6.9,77,0.00,CLR,,0.14,WeatherDisplay:10.37,2013-05-24 03:58:00,